Time;durP1;ratioP1;P1;durP2;ratioP2;P2;SDS_P1;SDS_P2;PMS_P1;PMS_P2;Temp;Humidity;BMP_temperature;BMP_pressure;BME280_temperature;BME280_humidity;BME280_pressure;Samples;Min_cycle;Max_cycle;Signal;HPM_P1;HPM_P2
2023/04/09 00:00:07;;;;;;;;;;;6.90;68.40;;;;;;4954349;28;19974;-78
2023/04/09 00:02:32;;;;;;;;;;;6.90;68.30;;;;;;4957441;28;20618;-78
2023/04/09 00:05:00;;;;;;;;;;;6.90;68.40;;;;;;4956098;28;19933;-80
2023/04/09 00:07:25;;;;;;;;;;;6.90;68.40;;;;;;4954697;28;19918;-77
2023/04/09 00:09:50;;;;;;;;;;;6.90;68.30;;;;;;4952518;28;19929;-78
2023/04/09 00:12:16;;;;;;;;;;;7.00;68.40;;;;;;4955262;28;19926;-79
2023/04/09 00:14:41;;;;;;;;;;;6.90;68.40;;;;;;4953579;28;19929;-79
2023/04/09 00:17:07;;;;;;;;;;;7.00;68.40;;;;;;4951253;28;19918;-79
2023/04/09 00:19:32;;;;;;;;;;;7.00;68.40;;;;;;4952980;28;19922;-77
2023/04/09 00:21:58;;;;;;;;;;;7.00;68.40;;;;;;4945284;28;20527;-79
2023/04/09 00:24:23;;;;;;;;;;;7.00;68.50;;;;;;4964038;28;19922;-79
2023/04/09 00:26:49;;;;;;;;;;;6.90;68.40;;;;;;4969481;28;19968;-77
2023/04/09 00:29:14;;;;;;;;;;;7.00;68.50;;;;;;4954450;28;20059;-79
2023/04/09 00:31:40;;;;;;;;;;;7.00;68.50;;;;;;4964141;28;20412;-79
2023/04/09 00:34:05;;;;;;;;;;;7.00;68.50;;;;;;4952968;28;19922;-78
2023/04/09 00:36:31;;;;;;;;;;;7.00;68.50;;;;;;4955247;28;19919;-78
2023/04/09 00:38:57;;;;;;;;;;;7.00;68.50;;;;;;4954100;28;19934;-78
2023/04/09 00:41:23;;;;;;;;;;;7.00;68.40;;;;;;4952546;28;20479;-78
2023/04/09 00:43:48;;;;;;;;;;;7.00;68.40;;;;;;4965852;28;19926;-78
2023/04/09 00:46:14;;;;;;;;;;;7.00;68.50;;;;;;4964776;28;19983;-78
2023/04/09 00:48:40;;;;;;;;;;;7.00;68.40;;;;;;4960535;28;19930;-80
2023/04/09 00:51:06;;;;;;;;;;;7.00;68.50;;;;;;4961622;28;19950;-79
2023/04/09 00:53:32;;;;;;;;;;;7.00;68.50;;;;;;4954546;28;19926;-79
2023/04/09 00:55:57;;;;;;;;;;;7.10;68.60;;;;;;4956278;28;19969;-80
2023/04/09 00:58:22;;;;;;;;;;;7.00;68.50;;;;;;4955220;28;19923;-76
2023/04/09 01:00:48;;;;;;;;;;;7.00;68.50;;;;;;4966486;28;20301;-78
2023/04/09 01:03:13;;;;;;;;;;;7.10;68.60;;;;;;4960214;28;19937;-79
2023/04/09 01:05:53;;;;;;;;;;;7.10;68.50;;;;;;4951970;28;19926;-80
2023/04/09 01:08:19;;;;;;;;;;;7.10;68.50;;;;;;4957113;28;19941;-79
2023/04/09 01:10:57;;;;;;;;;;;7.10;68.70;;;;;;4962424;28;20533;-77
2023/04/09 01:13:24;;;;;;;;;;;7.00;68.50;;;;;;4957493;28;19929;-78
2023/04/09 01:15:53;;;;;;;;;;;7.10;68.60;;;;;;4952390;28;20304;-79
2023/04/09 01:18:23;;;;;;;;;;;7.10;68.60;;;;;;4963971;28;19923;-80
2023/04/09 01:21:09;;;;;;;;;;;7.10;68.60;;;;;;4964635;28;19970;-78
2023/04/09 01:23:46;;;;;;;;;;;7.10;68.60;;;;;;4954445;28;19945;-78
2023/04/09 01:26:30;;;;;;;;;;;7.00;69.30;;;;;;4966781;28;19922;-78
2023/04/09 01:28:55;;;;;;;;;;;7.10;68.60;;;;;;4965527;28;19922;-79
2023/04/09 01:31:28;;;;;;;;;;;7.10;68.60;;;;;;4959322;28;20373;-79
2023/04/09 01:33:54;;;;;;;;;;;7.10;68.60;;;;;;4959169;28;20616;-78
2023/04/09 01:36:19;;;;;;;;;;;7.10;68.60;;;;;;4975631;28;19958;-78
2023/04/09 01:38:45;;;;;;;;;;;7.10;68.60;;;;;;4969780;28;19981;-78
2023/04/09 01:41:13;;;;;;;;;;;7.10;68.60;;;;;;4959660;28;19918;-79
2023/04/09 01:43:38;;;;;;;;;;;7.10;68.60;;;;;;4966932;28;19954;-80
2023/04/09 01:46:04;;;;;;;;;;;7.10;68.70;;;;;;4936258;28;20553;-79
2023/04/09 01:48:30;;;;;;;;;;;7.10;68.60;;;;;;4951327;28;19973;-79
2023/04/09 01:50:55;;;;;;;;;;;7.10;68.60;;;;;;4965657;28;19932;-78
2023/04/09 01:53:21;;;;;;;;;;;7.10;68.60;;;;;;4957538;28;19922;-79
2023/04/09 01:55:46;;;;;;;;;;;7.10;68.60;;;;;;4963948;28;19926;-78
2023/04/09 01:58:12;;;;;;;;;;;7.10;68.70;;;;;;4956941;28;19922;-79
2023/04/09 02:00:38;;;;;;;;;;;7.10;68.70;;;;;;4947068;28;19925;-78
2023/04/09 02:03:10;;;;;;;;;;;7.10;68.70;;;;;;4964619;28;19928;-78
2023/04/09 02:05:36;;;;;;;;;;;7.10;68.70;;;;;;4966482;28;19930;-80
2023/04/09 02:08:02;;;;;;;;;;;7.10;68.80;;;;;;4969045;28;19929;-78
2023/04/09 02:10:28;;;;;;;;;;;7.10;68.80;;;;;;4965529;28;19922;-78
2023/04/09 02:12:53;;;;;;;;;;;7.10;68.70;;;;;;4967033;28;19945;-78
2023/04/09 02:15:19;;;;;;;;;;;7.10;68.70;;;;;;4969000;28;20397;-78
2023/04/09 02:17:44;;;;;;;;;;;7.10;68.80;;;;;;4957980;28;19965;-80
2023/04/09 02:20:10;;;;;;;;;;;7.10;68.80;;;;;;4967771;28;19929;-80
2023/04/09 02:22:37;;;;;;;;;;;7.10;68.80;;;;;;4967865;28;20651;-78
2023/04/09 02:25:02;;;;;;;;;;;7.10;68.80;;;;;;4956622;28;19930;-80
2023/04/09 02:27:28;;;;;;;;;;;7.10;68.80;;;;;;4955004;28;20569;-78
2023/04/09 02:29:53;;;;;;;;;;;7.10;68.80;;;;;;4969249;28;19977;-79
2023/04/09 02:32:19;;;;;;;;;;;7.00;68.80;;;;;;4957477;28;19918;-77
2023/04/09 02:34:44;;;;;;;;;;;7.00;68.80;;;;;;4954115;28;19922;-78
2023/04/09 02:37:10;;;;;;;;;;;7.00;68.80;;;;;;4947613;28;20381;-79
2023/04/09 02:39:35;;;;;;;;;;;7.00;68.80;;;;;;4969735;28;20435;-76
2023/04/09 02:42:01;;;;;;;;;;;7.00;68.80;;;;;;4950980;28;19949;-80
2023/04/09 02:44:26;;;;;;;;;;;7.00;68.80;;;;;;4952915;28;19922;-77
2023/04/09 02:46:52;;;;;;;;;;;7.10;68.90;;;;;;4972552;28;19970;-78
2023/04/09 02:49:17;;;;;;;;;;;7.00;68.80;;;;;;4964897;28;19927;-79
2023/04/09 02:51:43;;;;;;;;;;;7.10;68.90;;;;;;4956200;28;19923;-79
2023/04/09 02:54:08;;;;;;;;;;;7.00;68.80;;;;;;4958506;28;19937;-79
2023/04/09 02:56:34;;;;;;;;;;;7.00;68.80;;;;;;4955851;28;19926;-78
2023/04/09 02:58:59;;;;;;;;;;;7.00;69.40;;;;;;4968288;28;20405;-79
2023/04/09 03:01:25;;;;;;;;;;;7.10;68.90;;;;;;4956143;28;19985;-80
2023/04/09 03:03:50;;;;;;;;;;;7.10;68.90;;;;;;4964705;28;19918;-80
2023/04/09 03:06:17;;;;;;;;;;;7.00;68.90;;;;;;4957463;28;19922;-78
2023/04/09 03:08:42;;;;;;;;;;;7.00;68.90;;;;;;4954910;28;19922;-79
2023/04/09 03:11:08;;;;;;;;;;;7.00;68.90;;;;;;4957184;28;19953;-76
2023/04/09 03:13:33;;;;;;;;;;;7.00;69.00;;;;;;4983664;28;20475;-77
2023/04/09 03:15:59;;;;;;;;;;;7.00;68.90;;;;;;4977396;28;19948;-79
2023/04/09 03:18:24;;;;;;;;;;;7.00;68.90;;;;;;4976123;28;19953;-79
2023/04/09 03:20:50;;;;;;;;;;;7.00;68.90;;;;;;4977745;28;19918;-79
2023/04/09 03:23:15;;;;;;;;;;;7.00;69.00;;;;;;4973907;28;19996;-79
2023/04/09 03:25:40;;;;;;;;;;;7.00;69.00;;;;;;4973841;28;19926;-78
2023/04/09 03:28:06;;;;;;;;;;;7.00;69.00;;;;;;4975712;28;20015;-80
2023/04/09 03:30:31;;;;;;;;;;;7.00;69.00;;;;;;4972178;28;19924;-80
2023/04/09 03:32:58;;;;;;;;;;;7.00;69.00;;;;;;4969886;28;20638;-79
2023/04/09 03:35:23;;;;;;;;;;;7.00;69.00;;;;;;4971086;28;19960;-79
2023/04/09 03:37:49;;;;;;;;;;;7.00;69.10;;;;;;4973502;28;19984;-79
2023/04/09 03:40:14;;;;;;;;;;;6.90;69.00;;;;;;4977071;28;19953;-80
2023/04/09 03:42:41;;;;;;;;;;;7.00;69.10;;;;;;4967120;28;20009;-77
2023/04/09 03:45:06;;;;;;;;;;;7.00;69.10;;;;;;4963241;28;19934;-78
2023/04/09 03:47:32;;;;;;;;;;;6.90;69.10;;;;;;4970511;28;19926;-79
2023/04/09 03:49:57;;;;;;;;;;;7.00;69.20;;;;;;4952950;28;19944;-78
2023/04/09 03:52:23;;;;;;;;;;;7.00;69.20;;;;;;4954636;28;19926;-78
2023/04/09 03:54:48;;;;;;;;;;;6.90;69.10;;;;;;4949254;28;19919;-79
2023/04/09 03:57:14;;;;;;;;;;;6.90;69.30;;;;;;4965400;28;21267;-79
2023/04/09 03:59:39;;;;;;;;;;;6.90;69.20;;;;;;4967224;28;19922;-80
2023/04/09 04:02:05;;;;;;;;;;;6.90;69.20;;;;;;4967652;28;19956;-79
2023/04/09 04:04:30;;;;;;;;;;;6.90;69.20;;;;;;4954549;28;19926;-79
2023/04/09 04:06:56;;;;;;;;;;;6.90;69.20;;;;;;4949020;28;19977;-78
2023/04/09 04:09:21;;;;;;;;;;;6.90;69.20;;;;;;4961072;28;19957;-80
2023/04/09 04:11:46;;;;;;;;;;;6.90;69.20;;;;;;4951240;28;19923;-78
2023/04/09 04:14:12;;;;;;;;;;;6.90;69.20;;;;;;4955924;28;19926;-78
2023/04/09 04:16:39;;;;;;;;;;;6.90;69.20;;;;;;4953589;28;19965;-79
2023/04/09 04:19:04;;;;;;;;;;;6.90;69.30;;;;;;4966615;28;19934;-79
2023/04/09 04:21:30;;;;;;;;;;;6.90;70.10;;;;;;4968445;28;20787;-78
2023/04/09 04:23:55;;;;;;;;;;;6.90;69.20;;;;;;4946456;28;19938;-79
2023/04/09 04:26:21;;;;;;;;;;;6.90;69.20;;;;;;4953949;28;19981;-77
2023/04/09 04:28:46;;;;;;;;;;;6.90;69.30;;;;;;4945092;28;19926;-78
2023/04/09 04:31:12;;;;;;;;;;;6.90;69.30;;;;;;4954769;28;19989;-79
2023/04/09 04:33:38;;;;;;;;;;;6.90;69.30;;;;;;4973678;28;19927;-79
2023/04/09 04:36:10;;;;;;;;;;;6.80;69.20;;;;;;4954103;28;19922;-78
2023/04/09 04:38:36;;;;;;;;;;;6.90;69.40;;;;;;4965445;28;19922;-77
2023/04/09 04:41:01;;;;;;;;;;;6.90;69.40;;;;;;4954289;28;19945;-77
2023/04/09 04:43:27;;;;;;;;;;;6.80;69.30;;;;;;4956801;28;20086;-78
2023/04/09 04:45:52;;;;;;;;;;;6.80;69.40;;;;;;4968638;28;22377;-79
2023/04/09 04:48:18;;;;;;;;;;;6.80;69.40;;;;;;4958066;28;19937;-78
2023/04/09 04:50:44;;;;;;;;;;;6.80;69.40;;;;;;4971186;28;20022;-77
2023/04/09 04:53:09;;;;;;;;;;;6.80;69.40;;;;;;4958086;28;19953;-79
2023/04/09 04:55:35;;;;;;;;;;;6.80;69.40;;;;;;4954420;28;19929;-78
2023/04/09 04:58:01;;;;;;;;;;;6.80;69.40;;;;;;4969261;28;19930;-78
2023/04/09 05:00:26;;;;;;;;;;;6.80;69.40;;;;;;4957844;28;19922;-78
2023/04/09 05:02:52;;;;;;;;;;;6.80;69.40;;;;;;4965333;28;19918;-78
2023/04/09 05:05:17;;;;;;;;;;;6.80;69.40;;;;;;4958514;28;19969;-80
2023/04/09 05:07:43;;;;;;;;;;;6.80;69.40;;;;;;4952400;28;19919;-79
2023/04/09 05:10:08;;;;;;;;;;;6.80;69.40;;;;;;4962889;28;19926;-78
2023/04/09 05:12:34;;;;;;;;;;;6.80;69.50;;;;;;4955168;28;19954;-78
2023/04/09 05:14:59;;;;;;;;;;;6.80;69.40;;;;;;4952317;28;20442;-77
2023/04/09 05:17:25;;;;;;;;;;;6.80;69.40;;;;;;4957925;28;19928;-76
2023/04/09 05:19:53;;;;;;;;;;;6.80;69.50;;;;;;4956646;28;20282;-79
2023/04/09 05:22:19;;;;;;;;;;;6.80;69.40;;;;;;4958840;28;19981;-78
2023/04/09 05:24:45;;;;;;;;;;;6.80;69.40;;;;;;4956709;28;19925;-77
2023/04/09 05:27:10;;;;;;;;;;;6.80;69.50;;;;;;4958373;28;19922;-80
2023/04/09 05:29:35;;;;;;;;;;;6.80;69.50;;;;;;4973807;28;19926;-77
2023/04/09 05:32:01;;;;;;;;;;;6.80;69.40;;;;;;4956584;28;19929;-76
2023/04/09 05:34:26;;;;;;;;;;;6.80;69.40;;;;;;4945509;28;19954;-78
2023/04/09 05:36:52;;;;;;;;;;;6.80;69.40;;;;;;4957636;28;19929;-77
2023/04/09 05:39:18;;;;;;;;;;;6.90;69.50;;;;;;4972951;28;19931;-78
2023/04/09 05:41:43;;;;;;;;;;;6.90;69.50;;;;;;4950784;28;19973;-78
2023/04/09 05:44:12;;;;;;;;;;;6.90;69.60;;;;;;4953921;28;20443;-78
2023/04/09 05:46:37;;;;;;;;;;;6.90;69.50;;;;;;4960058;28;19965;-78
2023/04/09 05:49:02;;;;;;;;;;;6.90;69.50;;;;;;4958256;28;20493;-78
2023/04/09 05:51:28;;;;;;;;;;;7.00;69.50;;;;;;4969650;28;19933;-78
2023/04/09 05:53:53;;;;;;;;;;;7.00;69.50;;;;;;4979382;28;20218;-80
2023/04/09 05:56:21;;;;;;;;;;;7.00;69.50;;;;;;4987376;28;19930;-79
2023/04/09 05:58:47;;;;;;;;;;;7.10;69.60;;;;;;4964615;28;20524;-78
2023/04/09 06:01:12;;;;;;;;;;;7.10;69.60;;;;;;4984291;28;19921;-79
2023/04/09 06:03:38;;;;;;;;;;;7.10;69.50;;;;;;4946177;28;19926;-77
2023/04/09 06:06:03;;;;;;;;;;;7.20;69.50;;;;;;4987418;28;19922;-78
2023/04/09 06:08:29;;;;;;;;;;;7.20;69.50;;;;;;4974960;28;19972;-78
2023/04/09 06:10:54;;;;;;;;;;;7.30;69.50;;;;;;4982934;28;20457;-78
2023/04/09 06:13:20;;;;;;;;;;;7.30;69.40;;;;;;4976566;28;19926;-78
2023/04/09 06:15:45;;;;;;;;;;;7.40;69.50;;;;;;4979920;28;19926;-78
2023/04/09 06:18:11;;;;;;;;;;;7.50;69.50;;;;;;4977584;28;20323;-79
2023/04/09 06:20:36;;;;;;;;;;;7.60;69.40;;;;;;4972875;28;19926;-79
2023/04/09 06:23:02;;;;;;;;;;;7.70;69.40;;;;;;4983635;28;19977;-79
2023/04/09 06:25:27;;;;;;;;;;;7.80;69.40;;;;;;4953768;28;20658;-78
2023/04/09 06:27:52;;;;;;;;;;;7.90;69.30;;;;;;4963341;28;19922;-79
2023/04/09 06:33:21;;;;;;;;;;;8.00;69.10;;;;;;4957846;28;19925;-79
2023/04/09 06:35:46;;;;;;;;;;;8.20;69.00;;;;;;4959105;28;19926;-78
2023/04/09 06:38:12;;;;;;;;;;;8.30;69.00;;;;;;4963052;28;20313;-78
2023/04/09 06:40:37;;;;;;;;;;;8.40;69.00;;;;;;4964512;28;20037;-79
2023/04/09 06:43:03;;;;;;;;;;;8.40;68.80;;;;;;4974260;28;19918;-80
2023/04/09 06:45:30;;;;;;;;;;;8.50;68.90;;;;;;4970073;28;19957;-77
2023/04/09 06:47:57;;;;;;;;;;;8.60;68.80;;;;;;4990600;28;24724;-78
2023/04/09 06:50:23;;;;;;;;;;;8.70;68.80;;;;;;4975007;28;19982;-78
2023/04/09 06:52:48;;;;;;;;;;;8.80;68.70;;;;;;4981673;28;20029;-79
2023/04/09 06:55:13;;;;;;;;;;;8.90;68.70;;;;;;4988842;28;19987;-78
2023/04/09 06:57:39;;;;;;;;;;;9.00;68.60;;;;;;4990111;28;19926;-78
2023/04/09 07:00:05;;;;;;;;;;;9.10;68.50;;;;;;4991342;28;19919;-78
2023/04/09 07:02:31;;;;;;;;;;;9.20;68.50;;;;;;4976383;28;19922;-78
2023/04/09 07:04:56;;;;;;;;;;;9.30;68.40;;;;;;4956554;28;19976;-79
2023/04/09 07:07:21;;;;;;;;;;;9.40;68.40;;;;;;4957612;28;20424;-79
2023/04/09 07:09:47;;;;;;;;;;;9.50;68.30;;;;;;4960548;28;19926;-78
2023/04/09 07:12:12;;;;;;;;;;;9.60;68.20;;;;;;4957751;28;22228;-79
2023/04/09 07:14:38;;;;;;;;;;;9.70;68.10;;;;;;4944530;28;19918;-79
2023/04/09 07:17:03;;;;;;;;;;;9.80;68.10;;;;;;4961494;28;19950;-78
2023/04/09 07:19:29;;;;;;;;;;;9.90;68.00;;;;;;4954277;28;20636;-76
2023/04/09 07:21:55;;;;;;;;;;;10.00;68.00;;;;;;4954029;28;19930;-78
2023/04/09 07:24:20;;;;;;;;;;;10.20;68.00;;;;;;4960091;28;20388;-79
2023/04/09 07:26:46;;;;;;;;;;;10.30;67.80;;;;;;4959892;28;19953;-78
2023/04/09 07:29:11;;;;;;;;;;;10.40;67.70;;;;;;4954517;28;20381;-79
2023/04/09 07:31:37;;;;;;;;;;;10.60;67.60;;;;;;4966959;28;20014;-79
2023/04/09 07:34:02;;;;;;;;;;;10.70;67.50;;;;;;4972686;28;19918;-77
2023/04/09 07:36:28;;;;;;;;;;;10.80;67.40;;;;;;4956457;28;20629;-79
2023/04/09 07:38:53;;;;;;;;;;;10.80;67.20;;;;;;4940276;28;20803;-79
2023/04/09 07:41:19;;;;;;;;;;;10.80;67.10;;;;;;4964729;28;19973;-80
2023/04/09 07:43:45;;;;;;;;;;;10.80;67.10;;;;;;4955088;28;19977;-79
2023/04/09 07:46:10;;;;;;;;;;;10.80;67.20;;;;;;4942310;28;20563;-78
2023/04/09 07:48:36;;;;;;;;;;;10.90;67.10;;;;;;4966009;28;19925;-79
2023/04/09 07:51:01;;;;;;;;;;;10.90;67.10;;;;;;4965603;28;19974;-79
2023/04/09 07:53:27;;;;;;;;;;;11.00;67.10;;;;;;4949783;28;20460;-81
2023/04/09 07:55:52;;;;;;;;;;;11.00;67.10;;;;;;4959256;28;20013;-78
2023/04/09 07:58:18;;;;;;;;;;;11.20;67.20;;;;;;4962997;28;20056;-78
2023/04/09 08:00:43;;;;;;;;;;;11.30;67.10;;;;;;4953737;28;20389;-78
2023/04/09 08:03:09;;;;;;;;;;;11.50;67.00;;;;;;4970275;28;19922;-79
2023/04/09 08:05:35;;;;;;;;;;;11.70;66.90;;;;;;4952870;28;19930;-77
2023/04/09 08:08:00;;;;;;;;;;;11.80;66.70;;;;;;4944536;28;19926;-78
2023/04/09 08:10:26;;;;;;;;;;;12.00;66.70;;;;;;4975548;28;19921;-78
2023/04/09 08:12:51;;;;;;;;;;;12.10;66.50;;;;;;4973044;28;20380;-78
2023/04/09 08:15:17;;;;;;;;;;;12.30;66.40;;;;;;4976986;28;19925;-78
2023/04/09 08:17:42;;;;;;;;;;;12.50;66.40;;;;;;4956458;28;20397;-77
2023/04/09 08:20:08;;;;;;;;;;;12.60;66.10;;;;;;4976387;28;20021;-77
2023/04/09 08:22:34;;;;;;;;;;;12.80;66.10;;;;;;4975718;28;19926;-75
2023/04/09 08:24:59;;;;;;;;;;;12.90;65.90;;;;;;4987524;28;19930;-79
2023/04/09 08:27:25;;;;;;;;;;;13.00;65.80;;;;;;4973437;28;19969;-78
2023/04/09 08:29:50;;;;;;;;;;;13.10;65.70;;;;;;4974044;28;20359;-78
2023/04/09 08:32:16;;;;;;;;;;;13.20;65.60;;;;;;4985911;28;20012;-78
2023/04/09 08:34:41;;;;;;;;;;;13.30;65.40;;;;;;4987340;28;19925;-77
2023/04/09 08:37:07;;;;;;;;;;;13.40;65.30;;;;;;4972012;28;20028;-79
2023/04/09 08:39:32;;;;;;;;;;;13.40;65.30;;;;;;4983123;28;20056;-78
2023/04/09 08:42:01;;;;;;;;;;;13.50;65.30;;;;;;4966036;28;20009;-78
2023/04/09 08:44:27;;;;;;;;;;;13.60;65.30;;;;;;4954246;28;19926;-77
2023/04/09 08:46:53;;;;;;;;;;;13.70;65.20;;;;;;4938809;28;19933;-78
2023/04/09 08:49:18;;;;;;;;;;;13.90;65.20;;;;;;4952369;28;19980;-78
2023/04/09 08:51:47;;;;;;;;;;;14.00;65.00;;;;;;4952613;28;19922;-77
2023/04/09 08:54:16;;;;;;;;;;;14.20;64.90;;;;;;4952449;28;19949;-77
2023/04/09 08:56:41;;;;;;;;;;;14.30;64.70;;;;;;4951983;28;19922;-78
2023/04/09 08:59:07;;;;;;;;;;;14.40;64.70;;;;;;4951682;28;19933;-79
2023/04/09 09:01:33;;;;;;;;;;;14.50;64.50;;;;;;4951958;28;19953;-78
2023/04/09 09:03:58;;;;;;;;;;;14.60;64.40;;;;;;4951540;28;20013;-77
2023/04/09 09:06:26;;;;;;;;;;;14.80;64.30;;;;;;4952279;28;19926;-78
2023/04/09 09:09:10;;;;;;;;;;;14.90;64.20;;;;;;4952765;28;19929;-77
2023/04/09 09:11:42;;;;;;;;;;;14.90;64.10;;;;;;4967068;28;20049;-77
2023/04/09 09:14:08;;;;;;;;;;;15.00;64.00;;;;;;4971177;28;19932;-78
2023/04/09 09:16:34;;;;;;;;;;;15.00;63.90;;;;;;4981042;28;19953;-79
2023/04/09 09:19:00;;;;;;;;;;;15.00;64.00;;;;;;4963474;28;19964;-78
2023/04/09 09:21:26;;;;;;;;;;;15.00;64.10;;;;;;4983074;28;19922;-76
2023/04/09 09:23:51;;;;;;;;;;;14.90;63.90;;;;;;4982026;28;19929;-79
2023/04/09 09:26:18;;;;;;;;;;;14.90;63.90;;;;;;4986701;28;19930;-78
2023/04/09 09:28:44;;;;;;;;;;;15.00;64.00;;;;;;4982468;28;19944;-78
2023/04/09 09:31:10;;;;;;;;;;;15.10;64.10;;;;;;4970846;28;19922;-78
2023/04/09 09:33:35;;;;;;;;;;;15.20;63.90;;;;;;4960393;28;20385;-78
2023/04/09 09:36:02;;;;;;;;;;;15.20;63.80;;;;;;4971133;28;19972;-78
2023/04/09 09:38:28;;;;;;;;;;;15.20;63.80;;;;;;4969445;28;19936;-78
2023/04/09 09:40:53;;;;;;;;;;;15.30;63.70;;;;;;4971528;28;19957;-79
2023/04/09 09:43:19;;;;;;;;;;;15.30;63.60;;;;;;4983330;28;19921;-78
2023/04/09 09:45:45;;;;;;;;;;;15.30;63.60;;;;;;4968669;28;19964;-80
2023/04/09 09:48:13;;;;;;;;;;;15.40;63.60;;;;;;4982451;28;19922;-79
2023/04/09 09:50:41;;;;;;;;;;;15.60;63.70;;;;;;4975570;28;21298;-80
2023/04/09 09:53:08;;;;;;;;;;;15.70;63.50;;;;;;4973170;28;19980;-79
2023/04/09 09:55:34;;;;;;;;;;;15.70;63.30;;;;;;4984046;28;19961;-79
2023/04/09 09:58:01;;;;;;;;;;;15.80;63.20;;;;;;4972829;28;19930;-79
2023/04/09 10:00:26;;;;;;;;;;;15.80;63.10;;;;;;4986746;28;19929;-78
2023/04/09 10:02:55;;;;;;;;;;;15.90;63.10;;;;;;4975006;28;19922;-79
2023/04/09 10:05:25;;;;;;;;;;;15.90;63.10;;;;;;4976547;28;19932;-79
2023/04/09 10:07:52;;;;;;;;;;;16.00;63.90;;;;;;4976850;28;20276;-79
2023/04/09 10:10:17;;;;;;;;;;;16.00;63.00;;;;;;4975306;28;19933;-79
2023/04/09 10:12:44;;;;;;;;;;;16.10;63.00;;;;;;4967148;28;19922;-78
2023/04/09 10:15:09;;;;;;;;;;;16.20;62.90;;;;;;4991462;28;19957;-79
2023/04/09 10:17:35;;;;;;;;;;;16.40;62.90;;;;;;4972153;28;20455;-77
2023/04/09 10:20:11;;;;;;;;;;;16.50;62.70;;;;;;4980169;28;19993;-78
2023/04/09 10:22:37;;;;;;;;;;;16.50;62.50;;;;;;4978975;28;19922;-77
2023/04/09 10:25:03;;;;;;;;;;;16.60;62.50;;;;;;4971145;28;20009;-79
2023/04/09 10:27:28;;;;;;;;;;;16.70;62.40;;;;;;4972310;28;20056;-79
2023/04/09 10:29:54;;;;;;;;;;;16.80;62.20;;;;;;4984426;28;19933;-79
2023/04/09 10:32:20;;;;;;;;;;;16.90;62.20;;;;;;4977811;28;20001;-77
2023/04/09 10:34:45;;;;;;;;;;;16.90;62.00;;;;;;4959852;28;19923;-79
2023/04/09 10:37:15;;;;;;;;;;;17.00;62.10;;;;;;4958732;28;19926;-77
2023/04/09 10:39:44;;;;;;;;;;;17.10;62.10;;;;;;4965937;28;20024;-79
2023/04/09 10:42:14;;;;;;;;;;;17.40;62.00;;;;;;4954715;28;19922;-79
2023/04/09 10:44:40;;;;;;;;;;;17.50;61.70;;;;;;4958089;28;19937;-78
2023/04/09 10:47:06;;;;;;;;;;;17.50;61.50;;;;;;4954188;28;19922;-79
2023/04/09 10:49:39;;;;;;;;;;;17.50;61.50;;;;;;4964721;28;19926;-79
2023/04/09 10:52:05;;;;;;;;;;;17.50;61.40;;;;;;4966727;28;20001;-79
2023/04/09 10:54:34;;;;;;;;;;;17.60;61.50;;;;;;4957903;28;19945;-80
2023/04/09 10:57:15;;;;;;;;;;;17.60;61.40;;;;;;4950754;28;20021;-76
2023/04/09 10:59:47;;;;;;;;;;;17.60;61.40;;;;;;4952359;28;19922;-76
2023/04/09 11:02:19;;;;;;;;;;;17.80;61.40;;;;;;4964448;28;19925;-76
2023/04/09 11:04:51;;;;;;;;;;;18.10;61.30;;;;;;4975596;28;19933;-76
2023/04/09 11:07:16;;;;;;;;;;;18.30;61.10;;;;;;4980531;28;20400;-77
2023/04/09 11:09:42;;;;;;;;;;;18.60;60.70;;;;;;4971429;28;19929;-77
2023/04/09 11:12:09;;;;;;;;;;;18.70;60.50;;;;;;4981703;28;20320;-78
2023/04/09 11:14:35;;;;;;;;;;;18.70;60.30;;;;;;4957877;28;19922;-78
2023/04/09 11:17:01;;;;;;;;;;;18.70;60.30;;;;;;4972607;28;19922;-78
2023/04/09 11:19:27;;;;;;;;;;;18.90;60.30;;;;;;4958350;28;19925;-78
2023/04/09 11:21:52;;;;;;;;;;;19.00;60.00;;;;;;4980279;28;19929;-79
2023/04/09 11:24:18;;;;;;;;;;;19.30;60.10;;;;;;4973153;28;20580;-78
2023/04/09 11:26:44;;;;;;;;;;;19.50;59.80;;;;;;4970943;28;19937;-78
2023/04/09 11:29:10;;;;;;;;;;;19.60;59.60;;;;;;4979999;28;19929;-78
2023/04/09 11:31:35;;;;;;;;;;;19.80;59.50;;;;;;4983459;28;19922;-78
2023/04/09 11:34:01;;;;;;;;;;;19.80;59.30;;;;;;4973047;28;19922;-79
2023/04/09 11:36:27;;;;;;;;;;;19.80;59.20;;;;;;4982170;28;20539;-79
2023/04/09 11:38:54;;;;;;;;;;;19.90;59.30;;;;;;4981911;28;19936;-77
2023/04/09 11:41:34;;;;;;;;;;;19.80;59.30;;;;;;4988964;28;19922;-76
2023/04/09 11:44:03;;;;;;;;;;;19.90;59.30;;;;;;4969864;28;19918;-78
2023/04/09 11:46:30;;;;;;;;;;;20.00;59.30;;;;;;4983219;28;20420;-78
2023/04/09 11:48:55;;;;;;;;;;;20.10;59.20;;;;;;4973002;28;20428;-78
2023/04/09 11:51:21;;;;;;;;;;;20.20;59.10;;;;;;4975537;28;20184;-77
2023/04/09 11:53:47;;;;;;;;;;;20.40;59.10;;;;;;4974991;28;19925;-78
2023/04/09 11:56:13;;;;;;;;;;;20.60;58.90;;;;;;4974879;28;19924;-79
2023/04/09 11:58:43;;;;;;;;;;;20.80;58.70;;;;;;4958526;28;20688;-78
2023/04/09 12:01:08;;;;;;;;;;;20.80;58.60;;;;;;4972702;28;19933;-78
2023/04/09 12:03:36;;;;;;;;;;;21.00;58.60;;;;;;4971226;28;20497;-78
2023/04/09 12:06:01;;;;;;;;;;;21.10;58.30;;;;;;4951233;28;19925;-78
2023/04/09 12:08:27;;;;;;;;;;;21.30;58.40;;;;;;4968236;28;19918;-78
2023/04/09 12:10:52;;;;;;;;;;;21.50;58.20;;;;;;4981142;28;19917;-78
2023/04/09 12:13:18;;;;;;;;;;;21.60;57.90;;;;;;4984724;28;19937;-78
2023/04/09 12:15:43;;;;;;;;;;;21.70;57.80;;;;;;4961766;28;19925;-78
2023/04/09 12:18:09;;;;;;;;;;;21.60;57.80;;;;;;4985768;28;20004;-78
2023/04/09 12:20:36;;;;;;;;;;;21.70;57.80;;;;;;4959688;28;19977;-78
2023/04/09 12:23:02;;;;;;;;;;;21.90;57.80;;;;;;4965023;28;19929;-78
2023/04/09 12:25:35;;;;;;;;;;;22.00;57.60;;;;;;4956909;28;19926;-76
2023/04/09 12:28:01;;;;;;;;;;;22.20;57.50;;;;;;4966786;28;19922;-79
2023/04/09 12:30:26;;;;;;;;;;;22.40;57.40;;;;;;4953264;28;19922;-78
2023/04/09 12:32:52;;;;;;;;;;;22.50;57.20;;;;;;4967489;28;19922;-77
2023/04/09 12:35:17;;;;;;;;;;;22.60;57.10;;;;;;4952242;28;20077;-78
2023/04/09 12:37:43;;;;;;;;;;;22.70;57.00;;;;;;4966315;28;19931;-79
2023/04/09 12:40:09;;;;;;;;;;;22.90;57.00;;;;;;4969328;28;20036;-78
2023/04/09 12:42:35;;;;;;;;;;;23.00;56.70;;;;;;4970335;28;19929;-76
2023/04/09 12:45:00;;;;;;;;;;;23.10;56.70;;;;;;4950371;28;19926;-79
2023/04/09 12:47:26;;;;;;;;;;;23.30;56.50;;;;;;4956293;28;19922;-79
2023/04/09 12:49:52;;;;;;;;;;;23.50;56.50;;;;;;4970588;28;20308;-79
2023/04/09 12:52:18;;;;;;;;;;;23.80;56.30;;;;;;4954757;28;19926;-79
2023/04/09 12:54:43;;;;;;;;;;;23.90;56.10;;;;;;4944610;28;19933;-79
2023/04/09 12:57:09;;;;;;;;;;;24.00;56.00;;;;;;4971254;28;19929;-79
2023/04/09 12:59:34;;;;;;;;;;;24.10;55.90;;;;;;4959817;28;19922;-79
2023/04/09 13:02:00;;;;;;;;;;;24.20;55.80;;;;;;4970836;28;19922;-79
2023/04/09 13:04:26;;;;;;;;;;;24.30;55.90;;;;;;4945813;28;19926;-79
2023/04/09 13:06:51;;;;;;;;;;;24.40;55.80;;;;;;4964026;28;19965;-79
2023/04/09 13:09:16;;;;;;;;;;;24.60;55.70;;;;;;4954005;28;19945;-80
2023/04/09 13:11:42;;;;;;;;;;;24.70;55.60;;;;;;4959474;28;19929;-77
2023/04/09 13:14:12;;;;;;;;;;;24.80;55.40;;;;;;4963809;28;20059;-79
2023/04/09 13:16:40;;;;;;;;;;;25.00;55.40;;;;;;4965425;28;19922;-79
2023/04/09 13:19:07;;;;;;;;;;;25.10;55.30;;;;;;4972944;28;19930;-78
2023/04/09 13:21:32;;;;;;;;;;;25.20;55.10;;;;;;4969852;28;19926;-79
2023/04/09 13:23:57;;;;;;;;;;;25.10;54.90;;;;;;4973611;28;19928;-79
2023/04/09 13:26:23;;;;;;;;;;;24.90;54.80;;;;;;4957498;28;20305;-79
2023/04/09 13:28:50;;;;;;;;;;;24.80;54.90;;;;;;4950511;28;19978;-77
2023/04/09 13:31:16;;;;;;;;;;;24.80;55.20;;;;;;4961353;28;19988;-80
2023/04/09 13:33:41;;;;;;;;;;;24.80;55.20;;;;;;4960762;28;19934;-79
2023/04/09 13:36:07;;;;;;;;;;;24.80;55.20;;;;;;4960827;28;19922;-79
2023/04/09 13:38:32;;;;;;;;;;;24.90;55.20;;;;;;4957715;28;19926;-79
2023/04/09 13:40:58;;;;;;;;;;;25.00;55.20;;;;;;4959958;28;19922;-79
2023/04/09 13:43:26;;;;;;;;;;;25.00;55.10;;;;;;4958678;28;19927;-79
2023/04/09 13:45:52;;;;;;;;;;;25.00;55.00;;;;;;4948679;28;19953;-79
2023/04/09 13:48:18;;;;;;;;;;;24.90;54.90;;;;;;4966372;28;20553;-79
2023/04/09 13:50:44;;;;;;;;;;;24.90;55.00;;;;;;4954374;28;19926;-79
2023/04/09 13:53:09;;;;;;;;;;;24.90;55.00;;;;;;4972498;28;19929;-79
2023/04/09 13:55:35;;;;;;;;;;;24.90;55.00;;;;;;4952789;28;19926;-80
2023/04/09 13:58:00;;;;;;;;;;;24.90;55.00;;;;;;4969476;28;20428;-78
2023/04/09 14:00:26;;;;;;;;;;;24.80;54.90;;;;;;4962826;28;19936;-79
2023/04/09 14:02:51;;;;;;;;;;;24.80;55.00;;;;;;4951109;28;19922;-79
2023/04/09 14:05:17;;;;;;;;;;;24.70;55.00;;;;;;4952519;28;19933;-78
2023/04/09 14:07:42;;;;;;;;;;;24.70;55.80;;;;;;4955369;28;20503;-79
2023/04/09 14:10:08;;;;;;;;;;;24.70;55.20;;;;;;4965003;28;19933;-79
2023/04/09 14:12:34;;;;;;;;;;;24.80;55.20;;;;;;4958975;28;19972;-78
2023/04/09 14:14:59;;;;;;;;;;;24.80;55.10;;;;;;4966110;28;19929;-79
2023/04/09 14:17:25;;;;;;;;;;;24.90;55.10;;;;;;4965569;28;19953;-80
2023/04/09 14:19:50;;;;;;;;;;;25.00;55.00;;;;;;4957657;28;19922;-80